Time;durP1;ratioP1;P1;durP2;ratioP2;P2;SDS_P1;SDS_P2;PMS_P1;PMS_P2;Temp;Humidity;BMP_temperature;BMP_pressure;BME280_temperature;BME280_humidity;BME280_pressure;Samples;Min_cycle;Max_cycle;Signal;HPM_P1;HPM_P2
2023/01/27 00:00:21;;;;;;;7.17;2.23;;;6.50;99.90;;;;;;5006822;28;20251;-92
2023/01/27 00:05:34;;;;;;;12.97;2.63;;;6.40;99.90;;;;;;5001251;28;20201;-92
2023/01/27 00:08:03;;;;;;;8.53;2.13;;;6.40;99.90;;;;;;5003712;28;20209;-92
2023/01/27 00:10:30;;;;;;;5.50;1.80;;;6.40;99.90;;;;;;5007517;28;20244;-93
2023/01/27 00:15:54;;;;;;;7.43;2.17;;;6.40;99.90;;;;;;5005542;28;20228;-93
2023/01/27 00:18:23;;;;;;;12.13;2.30;;;6.30;99.90;;;;;;5004717;28;20290;-92
2023/01/27 00:26:44;;;;;;;10.67;2.00;;;6.40;99.90;;;;;;4978536;28;20197;-94
2023/01/27 00:29:28;;;;;;;14.20;2.47;;;6.70;99.90;;;;;;4978586;28;20229;-93
2023/01/27 00:34:50;;;;;;;10.00;2.20;;;6.60;99.90;;;;;;5005437;28;20624;-93
2023/01/27 00:49:57;;;;;;;7.43;2.53;;;6.30;99.90;;;;;;5009009;28;20264;-94
2023/01/27 00:52:57;;;;;;;9.67;1.57;;;6.40;99.90;;;;;;5010663;28;20213;-95
2023/01/27 00:55:29;;;;;;;9.20;1.87;;;6.40;99.90;;;;;;5016373;28;20227;-94
2023/01/27 01:15:51;;;;;;;10.13;1.90;;;6.30;99.90;;;;;;5051568;28;20186;-94
2023/01/27 01:23:50;;;;;;;12.83;3.10;;;6.40;99.90;;;;;;5054534;28;20183;-94
2023/01/27 01:31:58;;;;;;;8.47;2.10;;;6.40;99.90;;;;;;5092886;28;20205;-95
2023/01/27 01:43:37;;;;;;;10.23;1.83;;;6.30;99.90;;;;;;5092289;28;20185;-93
2023/01/27 01:46:08;;;;;;;11.27;2.30;;;6.30;99.90;;;;;;5093243;28;20194;-92
2023/01/27 01:49:11;;;;;;;12.43;2.47;;;6.30;99.90;;;;;;5095498;28;20316;-92
2023/01/27 01:57:54;;;;;;;13.23;2.83;;;6.30;99.90;;;;;;5091343;28;20419;-92
2023/01/27 02:00:25;;;;;;;6.93;2.10;;;6.40;99.90;;;;;;5091007;28;20233;-95
2023/01/27 02:02:56;;;;;;;13.57;2.50;;;6.50;99.90;;;;;;5091597;28;20194;-93
2023/01/27 02:05:30;;;;;;;13.23;2.40;;;6.50;99.90;;;;;;5092794;28;20201;-94
2023/01/27 02:08:07;;;;;;;11.53;2.73;;;6.50;99.90;;;;;;5093232;28;20208;-92
2023/01/27 02:10:36;;;;;;;8.43;2.40;;;6.30;99.90;;;;;;5092038;28;20644;-95
2023/01/27 02:18:58;;;;;;;13.60;2.53;;;6.30;99.90;;;;;;5089414;28;20226;-93
2023/01/27 02:21:27;;;;;;;8.23;2.33;;;6.40;99.90;;;;;;5090952;28;20205;-93
2023/01/27 02:24:24;;;;;;;14.07;2.43;;;6.40;99.90;;;;;;5090085;28;20240;-92
2023/01/27 02:26:53;;;;;;;9.57;2.13;;;6.40;99.90;;;;;;5094700;28;20185;-93
2023/01/27 02:29:27;;;;;;;13.37;2.60;;;6.40;99.90;;;;;;5102541;22;20254;-93
2023/01/27 02:31:54;;;;;;;11.87;2.90;;;6.40;99.90;;;;;;5097736;28;20195;-93
2023/01/27 02:34:35;;;;;;;17.77;2.93;;;6.30;99.90;;;;;;5098028;28;20182;-93
2023/01/27 02:37:07;;;;;;;13.70;2.73;;;6.20;99.90;;;;;;5097687;28;20219;-92
2023/01/27 02:39:41;;;;;;;12.80;2.80;;;6.30;99.90;;;;;;5092969;28;20247;-95
2023/01/27 02:42:15;;;;;;;10.80;2.47;;;6.30;99.90;;;;;;5093721;28;20189;-92
2023/01/27 02:44:44;;;;;;;8.37;2.17;;;6.40;99.90;;;;;;5091549;28;20213;-92
2023/01/27 02:47:14;;;;;;;9.13;2.00;;;6.50;99.90;;;;;;5091511;28;20186;-93
2023/01/27 02:49:53;;;;;;;10.37;2.70;;;6.50;99.90;;;;;;5095783;22;20597;-93
2023/01/27 02:52:20;;;;;;;17.10;2.67;;;6.50;99.90;;;;;;5093161;28;20192;-92
2023/01/27 02:54:48;;;;;;;10.60;2.72;;;6.40;99.90;;;;;;5092359;28;20430;-93
2023/01/27 02:57:21;;;;;;;13.73;2.43;;;6.40;99.90;;;;;;5090896;28;20193;-92
2023/01/27 03:00:00;;;;;;;7.40;2.30;;;6.30;99.90;;;;;;5095650;22;20237;-93
2023/01/27 03:02:29;;;;;;;11.47;3.03;;;6.30;99.90;;;;;;5090056;28;20181;-91
2023/01/27 03:05:04;;;;;;;8.93;2.40;;;6.30;99.90;;;;;;5090243;28;20216;-94
2023/01/27 03:07:33;;;;;;;8.87;2.43;;;6.30;99.90;;;;;;5090537;28;20209;-94
2023/01/27 03:10:01;;;;;;;15.73;2.63;;;6.40;99.90;;;;;;5090231;28;20246;-93
2023/01/27 03:12:30;;;;;;;16.23;3.57;;;6.40;99.90;;;;;;5088349;28;20202;-94
2023/01/27 03:20:34;;;;;;;9.03;3.57;;;6.40;99.90;;;;;;5088942;28;20263;-94
2023/01/27 03:26:00;;;;;;;10.60;2.87;;;6.20;99.90;;;;;;5091513;28;20189;-92
2023/01/27 03:34:40;;;;;;;11.30;2.97;;;6.00;99.90;;;;;;5047626;28;20191;-95
2023/01/27 03:48:30;;;;;;;8.60;2.70;;;5.90;99.90;;;;;;5052962;28;20206;-92
2023/01/27 03:51:04;;;;;;;7.30;2.50;;;6.00;99.90;;;;;;5057610;28;20198;-92
2023/01/27 03:53:43;;;;;;;10.88;3.15;;;6.00;99.90;;;;;;5053736;28;20429;-92
2023/01/27 03:56:20;;;;;;;7.97;2.33;;;6.10;99.90;;;;;;5034925;28;20179;-93
2023/01/27 03:58:52;;;;;;;2.93;2.03;;;6.10;99.90;;;;;;5021987;28;20250;-94
2023/01/27 04:09:46;;;;;;;7.17;2.13;;;6.00;99.90;;;;;;5067502;22;20234;-92
2023/01/27 04:12:16;;;;;;;5.53;1.80;;;6.00;99.90;;;;;;5077454;28;20207;-92
2023/01/27 04:14:45;;;;;;;7.03;2.57;;;5.90;99.90;;;;;;5073379;28;20215;-94
2023/01/27 04:17:15;;;;;;;7.97;2.87;;;6.00;99.90;;;;;;5074223;28;20217;-93
2023/01/27 04:23:31;;;;;;;7.63;2.90;;;6.00;99.90;;;;;;5072081;28;20182;-96
2023/01/27 04:26:32;;;;;;;6.83;2.60;;;5.90;99.90;;;;;;5070087;28;20211;-93
2023/01/27 04:29:14;;;;;;;6.67;2.70;;;6.10;99.90;;;;;;5069916;28;20222;-93
2023/01/27 04:34:28;;;;;;;5.97;3.10;;;6.10;99.90;;;;;;5066798;28;20237;-93
2023/01/27 05:47:16;;;;;;;12.63;5.73;;;5.40;99.90;;;;;;5069708;28;20225;-92
2023/01/27 05:49:44;;;;;;;10.17;6.10;;;5.20;99.90;;;;;;5058335;28;20494;-95
2023/01/27 05:52:11;;;;;;;11.13;5.80;;;5.20;99.90;;;;;;5091403;28;20235;-92
2023/01/27 06:00:42;;;;;;;13.83;6.13;;;5.00;99.90;;;;;;5092333;28;20285;-94
2023/01/27 06:03:12;;;;;;;9.70;6.10;;;5.10;99.90;;;;;;5093321;28;20185;-92
2023/01/27 06:05:39;;;;;;;14.57;6.57;;;5.00;99.90;;;;;;5093033;28;20289;-94
2023/01/27 06:10:36;;;;;;;12.03;5.73;;;5.20;99.90;;;;;;5092824;22;20234;-92
2023/01/27 06:29:42;;;;;;;8.77;6.40;;;4.90;99.90;;;;;;5105634;22;20221;-92
2023/01/27 06:32:10;;;;;;;10.17;6.93;;;5.00;99.90;;;;;;5080675;28;20209;-91
2023/01/27 06:34:38;;;;;;;10.17;6.23;;;5.00;99.90;;;;;;5072040;28;20204;-95
2023/01/27 06:42:34;;;;;;;10.60;6.70;;;4.80;99.90;;;;;;5072004;28;20198;-94
2023/01/27 06:45:01;;;;;;;12.50;6.57;;;4.80;99.90;;;;;;5069122;28;20210;-94
2023/01/27 06:47:45;;;;;;;12.10;7.00;;;5.00;99.90;;;;;;5070173;28;20217;-92
2023/01/27 06:50:13;;;;;;;12.70;7.40;;;4.90;99.90;;;;;;5066792;28;20257;-95
2023/01/27 06:52:40;;;;;;;11.80;7.03;;;4.80;99.90;;;;;;5069464;28;20210;-92
2023/01/27 06:57:58;;;;;;;11.40;7.20;;;4.90;99.90;;;;;;5059507;28;20186;-93
2023/01/27 07:00:30;;;;;;;16.63;8.13;;;5.00;99.90;;;;;;5072911;28;20222;-92
2023/01/27 07:03:04;;;;;;;13.13;8.37;;;4.90;99.90;;;;;;5071847;28;20191;-94
2023/01/27 07:05:32;;;;;;;16.50;8.67;;;4.90;99.90;;;;;;5067215;28;20304;-93
2023/01/27 07:08:07;;;;;;;9.93;7.27;;;5.00;99.90;;;;;;5072522;28;20190;-92
2023/01/27 07:10:35;;;;;;;11.37;8.17;;;4.90;99.90;;;;;;5072575;28;20209;-92
2023/01/27 07:13:22;;;;;;;16.27;9.17;;;4.80;99.90;;;;;;5071925;28;20218;-94
2023/01/27 07:21:43;;;;;;;10.67;7.20;;;4.90;99.90;;;;;;5089465;28;20210;-94
2023/01/27 07:24:13;;;;;;;12.40;7.47;;;4.80;99.90;;;;;;5090453;28;20206;-93
2023/01/27 07:29:31;;;;;;;12.10;7.57;;;4.90;99.90;;;;;;5082401;28;20562;-93
2023/01/27 07:31:59;;;;;;;14.33;8.47;;;4.90;99.90;;;;;;5069057;28;20197;-93
2023/01/27 07:34:28;;;;;;;14.77;8.43;;;5.00;99.90;;;;;;5073788;28;20240;-93
2023/01/27 07:36:55;;;;;;;17.97;8.20;;;5.10;99.90;;;;;;5065746;28;20233;-92
2023/01/27 07:42:13;;;;;;;15.57;9.13;;;5.00;99.90;;;;;;5082746;28;20221;-93
2023/01/27 07:47:23;;;;;;;12.97;7.30;;;4.70;99.90;;;;;;5090567;28;20208;-94
2023/01/27 07:49:52;;;;;;;13.40;7.90;;;4.70;99.90;;;;;;5174485;22;20260;-93
2023/01/27 07:52:19;;;;;;;15.03;8.37;;;4.50;99.90;;;;;;5087496;28;20228;-93
2023/01/27 07:54:46;;;;;;;12.10;8.23;;;4.60;99.90;;;;;;5093471;28;20225;-92
2023/01/27 07:57:24;;;;;;;12.77;8.83;;;4.50;99.90;;;;;;5091705;28;20210;-92
2023/01/27 07:59:55;;;;;;;14.00;8.50;;;4.50;99.90;;;;;;5064750;22;20226;-94
2023/01/27 08:02:24;;;;;;;13.67;9.40;;;4.50;99.90;;;;;;5047796;28;20229;-94
2023/01/27 08:05:05;;;;;;;13.07;8.70;;;4.60;99.90;;;;;;5047811;28;20242;-92
2023/01/27 08:13:27;;;;;;;19.03;9.17;;;4.60;99.90;;;;;;5048529;28;20282;-95
2023/01/27 08:18:55;;;;;;;17.93;9.67;;;4.70;99.90;;;;;;5045232;28;20227;-95
2023/01/27 08:25:02;;;;;;;12.73;9.80;;;4.90;99.90;;;;;;5153163;27;20458;-94
2023/01/27 08:27:50;;;;;;;11.50;9.40;;;4.90;99.90;;;;;;5129444;28;20207;-94
2023/01/27 08:33:14;;;;;;;16.83;9.97;;;4.80;99.90;;;;;;5092853;28;20221;-92
2023/01/27 08:39:03;;;;;;;16.70;9.90;;;4.70;99.90;;;;;;5093735;28;20234;-92
2023/01/27 09:12:32;;;;;;;11.90;9.03;;;4.80;99.90;;;;;;5104525;28;20213;-91
2023/01/27 09:52:37;;;;;;;13.53;9.77;;;4.90;99.90;;;;;;5079410;28;20208;-92
2023/01/27 09:55:14;;;;;;;14.03;10.03;;;5.20;99.90;;;;;;5064287;28;20213;-91
2023/01/27 10:27:16;;;;;;;15.10;7.93;;;5.60;99.90;;;;;;5552337;22;20238;-83
2023/01/27 11:00:33;;;;;;;7.03;5.00;;;5.80;99.90;;;;;;5098654;28;20181;-84
2023/01/27 14:00:22;;;;;;;96.10;10.10;;;5.70;99.90;;;;;;5172235;22;20253;-92
2023/01/27 14:03:07;;;;;;;14.40;4.07;;;5.60;99.90;;;;;;5050996;28;20222;-91
2023/01/27 14:05:46;;;;;;;21.90;4.27;;;5.60;99.90;;;;;;5039656;28;20223;-93
2023/01/27 14:08:28;;;;;;;20.30;4.00;;;5.60;99.90;;;;;;5038840;28;20210;-93
2023/01/27 14:11:08;;;;;;;39.53;5.53;;;5.70;99.90;;;;;;5025611;28;20295;-91
2023/01/27 14:13:54;;;;;;;10.47;3.80;;;5.50;99.90;;;;;;5022870;28;20223;-93
2023/01/27 14:16:35;;;;;;;27.27;4.07;;;5.60;99.90;;;;;;5025237;28;20207;-92
2023/01/27 14:19:14;;;;;;;3.80;3.43;;;5.80;99.90;;;;;;5020707;28;20223;-92
2023/01/27 14:21:48;;;;;;;33.93;6.50;;;5.70;99.90;;;;;;5027754;28;20246;-90
2023/01/27 14:24:30;;;;;;;22.57;5.47;;;5.60;99.90;;;;;;5054649;28;20233;-92
2023/01/27 14:27:12;;;;;;;16.90;4.90;;;5.70;99.90;;;;;;5059358;28;20285;-93
2023/01/27 14:29:45;;;;;;;32.07;7.57;;;5.60;99.90;;;;;;5034382;28;20222;-90
2023/01/27 14:32:21;;;;;;;12.00;4.20;;;5.80;99.90;;;;;;5041772;28;20643;-94
2023/01/27 14:35:14;;;;;;;7.53;4.10;;;5.70;99.90;;;;;;5047152;28;20223;-92
2023/01/27 14:37:52;;;;;;;8.63;5.10;;;5.80;99.90;;;;;;5031688;28;20721;-94
2023/01/27 14:40:23;;;;;;;8.27;5.78;;;6.10;99.90;;;;;;5052860;28;20532;-94
2023/01/27 14:43:33;;;;;;;5.23;4.73;;;6.30;99.90;;;;;;5049932;28;20275;-92
2023/01/27 14:46:16;;;;;;;4.90;4.23;;;6.30;99.90;;;;;;5030779;28;20231;-92
2023/01/27 14:58:59;;;;;;;11.20;6.43;;;6.00;99.90;;;;;;5058070;28;20207;-92
2023/01/27 15:01:50;;;;;;;14.60;6.17;;;6.10;99.90;;;;;;5038540;28;20207;-94
2023/01/27 15:08:21;;;;;;;28.63;6.80;;;5.60;99.90;;;;;;4948840;28;20224;-85
2023/01/27 15:11:34;;;;;;;6.47;4.57;;;5.50;99.90;;;;;;5021800;28;20219;-85
2023/01/27 15:21:33;;;;;;;6.83;5.20;;;5.50;99.90;;;;;;5039148;28;20187;-85
2023/01/27 15:28:28;;;;;;;15.10;5.67;;;5.30;99.90;;;;;;5008549;28;20201;-86
2023/01/27 15:31:36;;;;;;;85.43;10.60;;;5.30;99.90;;;;;;5017249;28;20426;-86
2023/01/27 15:48:12;;;;;;;5.40;5.00;;;5.30;99.90;;;;;;5028607;28;20203;-86
2023/01/27 15:58:06;;;;;;;41.53;9.90;;;5.20;99.90;;;;;;5004496;28;20422;-84
2023/01/27 16:08:21;;;;;;;37.97;8.77;;;5.20;99.90;;;;;;5014559;28;20279;-85
2023/01/27 16:15:11;;;;;;;9.63;6.20;;;5.40;99.90;;;;;;4939289;28;20274;-85
2023/01/27 16:25:08;;;;;;;16.80;6.17;;;5.60;99.90;;;;;;5089827;22;20212;-93
2023/01/27 16:33:56;;;;;;;5.60;4.90;;;5.60;99.90;;;;;;5026891;28;20239;-92
2023/01/27 16:58:28;;;;;;;7.63;5.67;;;5.20;99.90;;;;;;5053262;28;20211;-84
2023/01/27 17:00:59;;;;;;;6.50;5.90;;;4.90;99.90;;;;;;5042626;28;20207;-85
2023/01/27 17:03:44;;;;;;;8.83;6.23;;;4.90;99.90;;;;;;5024475;28;20235;-85
2023/01/27 17:06:21;;;;;;;7.13;5.90;;;5.00;99.90;;;;;;5056097;28;20262;-84
2023/01/27 17:12:03;;;;;;;8.10;6.17;;;4.80;99.90;;;;;;5050681;28;20230;-85
2023/01/27 17:14:34;;;;;;;6.37;5.77;;;4.90;99.90;;;;;;5020872;28;20200;-85
2023/01/27 17:17:26;;;;;;;6.77;6.07;;;4.90;99.90;;;;;;5070048;28;20206;-85
2023/01/27 17:20:10;;;;;;;8.90;6.20;;;4.90;99.90;;;;;;5073218;28;20203;-83
2023/01/27 17:22:53;;;;;;;7.90;6.70;;;5.00;99.90;;;;;;5061816;28;20207;-85
2023/01/27 17:32:27;;;;;;;7.40;6.70;;;5.10;99.90;;;;;;5037344;28;20667;-83
2023/01/27 17:35:31;;;;;;;7.63;6.67;;;5.20;99.90;;;;;;5044900;28;20207;-85
2023/01/27 17:57:34;;;;;;;9.00;6.90;;;5.30;99.90;;;;;;5039246;28;20203;-92
2023/01/27 18:03:08;;;;;;;7.20;6.50;;;5.00;99.90;;;;;;5038818;28;20195;-92
2023/01/27 18:11:36;;;;;;;6.87;6.17;;;5.10;99.90;;;;;;5027059;28;20253;-94
2023/01/27 18:14:20;;;;;;;8.77;6.63;;;5.10;99.90;;;;;;5024142;28;20258;-92
2023/01/27 18:17:02;;;;;;;7.43;6.30;;;5.10;99.90;;;;;;5018129;28;20242;-94
2023/01/27 18:22:19;;;;;;;7.67;6.80;;;5.20;99.90;;;;;;5031270;28;20196;-93
2023/01/27 18:24:59;;;;;;;7.17;6.47;;;5.10;99.90;;;;;;5011104;28;20235;-93
2023/01/27 18:27:37;;;;;;;11.87;5.87;;;5.30;99.90;;;;;;5026765;28;20215;-91
2023/01/27 18:30:19;;;;;;;6.23;5.40;;;4.90;99.90;;;;;;5026429;28;20251;-93
2023/01/27 18:32:49;;;;;;;6.63;5.73;;;5.00;99.90;;;;;;5013499;28;20219;-92
2023/01/27 18:35:29;;;;;;;7.47;6.10;;;5.00;99.90;;;;;;5024156;28;20208;-92
2023/01/27 18:38:05;;;;;;;7.77;6.30;;;5.10;99.90;;;;;;5025875;28;20204;-92
2023/01/27 18:40:35;;;;;;;7.30;6.50;;;5.20;99.90;;;;;;5031228;28;20262;-92
2023/01/27 18:43:08;;;;;;;7.57;6.83;;;5.40;99.90;;;;;;5030098;28;20219;-91
2023/01/27 18:45:51;;;;;;;12.77;6.87;;;5.20;99.90;;;;;;5030983;28;20235;-90
2023/01/27 18:48:18;;;;;;;10.73;7.23;;;5.20;99.90;;;;;;5015272;28;20299;-93
2023/01/27 18:50:52;;;;;;;8.47;6.57;;;5.20;99.90;;;;;;5028818;28;20207;-91
2023/01/27 18:56:15;;;;;;;8.17;6.43;;;5.00;99.90;;;;;;5026371;28;20263;-94
2023/01/27 18:58:45;;;;;;;8.83;6.27;;;5.00;99.90;;;;;;5035979;28;20238;-93
2023/01/27 19:01:46;;;;;;;7.47;6.03;;;4.90;99.90;;;;;;5042687;28;20184;-92
2023/01/27 19:04:18;;;;;;;9.43;8.43;;;5.00;99.90;;;;;;5016683;28;20448;-93
2023/01/27 19:09:37;;;;;;;7.70;7.00;;;5.30;99.90;;;;;;5011314;28;20231;-92
2023/01/27 19:12:04;;;;;;;6.83;6.23;;;5.30;99.90;;;;;;5036923;28;20207;-94
2023/01/27 19:14:36;;;;;;;8.20;6.73;;;5.50;99.90;;;;;;5009133;28;20210;-93
2023/01/27 19:17:34;;;;;;;8.03;7.23;;;5.40;99.90;;;;;;5018809;28;20247;-95
2023/01/27 19:20:31;;;;;;;7.97;7.17;;;5.30;99.90;;;;;;4996727;28;20243;-92
2023/01/27 19:23:31;;;;;;;7.67;6.87;;;5.30;99.90;;;;;;5027213;28;20279;-94
2023/01/27 19:26:06;;;;;;;13.37;7.60;;;5.40;99.90;;;;;;5021334;28;20231;-93
2023/01/27 19:31:56;;;;;;;9.23;7.27;;;5.30;99.90;;;;;;5030165;28;20188;-93
2023/01/27 19:34:27;;;;;;;7.07;6.37;;;5.40;99.90;;;;;;5037154;28;20192;-94
2023/01/27 19:36:55;;;;;;;8.40;7.40;;;5.50;99.90;;;;;;5024941;28;20258;-93
2023/01/27 19:39:25;;;;;;;11.87;6.57;;;5.30;99.90;;;;;;5052613;28;20231;-94
2023/01/27 19:41:52;;;;;;;7.13;6.43;;;5.30;99.90;;;;;;5030566;28;20212;-93
2023/01/27 19:47:39;;;;;;;7.73;7.00;;;5.20;99.90;;;;;;5016617;28;20227;-92
2023/01/27 19:53:57;;;;;;;7.73;6.93;;;5.10;99.90;;;;;;5028391;28;20211;-91
2023/01/27 20:04:12;;;;;;;10.17;7.80;;;5.00;99.90;;;;;;5051880;28;20235;-84
2023/01/27 20:30:05;;;;;;;8.93;7.83;;;5.10;99.90;;;;;;5049150;28;20203;-84
2023/01/27 20:43:14;;;;;;;10.27;8.30;;;5.00;99.90;;;;;;5316799;22;20305;-83
2023/01/27 21:21:01;;;;;;;15.27;9.90;;;5.00;99.90;;;;;;4997769;28;20185;-85
2023/01/27 21:39:48;;;;;;;10.73;9.33;;;5.60;99.90;;;;;;5301782;23;19009996;-82
2023/01/27 21:47:27;;;;;;;13.50;9.87;;;5.20;99.90;;;;;;6135263;23;20190;-91
2023/01/27 21:50:00;;;;;;;15.10;11.17;;;5.20;99.90;;;;;;6142042;23;20204;-92
2023/01/27 21:52:32;;;;;;;14.43;10.17;;;5.10;99.90;;;;;;6141177;23;20646;-91
2023/01/27 21:55:03;;;;;;;13.67;10.13;;;5.00;99.90;;;;;;6140771;23;20165;-91
2023/01/27 21:57:30;;;;;;;13.43;10.33;;;4.80;99.90;;;;;;6137588;23;20639;-91
2023/01/27 21:59:58;;;;;;;16.13;10.83;;;4.80;99.90;;;;;;6142794;23;20200;-91
2023/01/27 22:02:25;;;;;;;12.53;10.40;;;4.70;99.90;;;;;;6138871;23;20204;-91
2023/01/27 22:04:52;;;;;;;16.40;11.23;;;4.80;99.90;;;;;;6145293;23;20680;-91
2023/01/27 22:07:19;;;;;;;16.23;11.03;;;4.90;99.90;;;;;;6143227;23;20639;-90
2023/01/27 22:09:47;;;;;;;16.13;10.70;;;4.80;99.90;;;;;;6144335;23;20496;-91
2023/01/27 22:12:20;;;;;;;19.07;11.50;;;5.10;99.90;;;;;;6139714;23;20263;-90
2023/01/27 22:14:50;;;;;;;13.33;10.73;;;5.20;99.90;;;;;;6141232;23;20177;-92
2023/01/27 22:17:23;;;;;;;13.07;10.80;;;5.20;99.90;;;;;;6143540;23;20178;-91
2023/01/27 22:20:04;;;;;;;14.53;11.13;;;5.30;99.90;;;;;;6144967;23;20228;-90
2023/01/27 22:22:31;;;;;;;13.10;10.80;;;5.10;99.90;;;;;;6138783;23;20180;-89
2023/01/27 22:24:58;;;;;;;15.50;11.47;;;5.20;99.90;;;;;;6140568;23;20283;-90
2023/01/27 22:27:26;;;;;;;13.43;10.83;;;5.30;99.90;;;;;;6138673;23;20192;-90
2023/01/27 22:29:57;;;;;;;12.53;10.83;;;5.30;99.90;;;;;;6137827;23;20640;-90
2023/01/27 22:32:27;;;;;;;14.03;11.23;;;5.40;99.90;;;;;;6138476;23;20199;-90
2023/01/27 22:35:00;;;;;;;14.93;10.83;;;5.40;99.90;;;;;;6137981;23;20176;-90
2023/01/27 22:37:34;;;;;;;17.23;11.60;;;5.30;99.90;;;;;;6132053;23;20187;-90
2023/01/27 22:40:09;;;;;;;15.93;10.83;;;5.20;99.90;;;;;;6130808;23;20176;-89
2023/01/27 22:42:43;;;;;;;11.77;10.57;;;5.20;99.90;;;;;;6132567;23;20178;-89
2023/01/27 22:45:13;;;;;;;12.73;10.33;;;5.20;99.90;;;;;;6106800;23;20200;-90
2023/01/27 22:47:41;;;;;;;14.43;12.93;;;5.30;99.90;;;;;;6133136;23;20400;-89
2023/01/27 22:50:14;;;;;;;17.03;10.83;;;5.50;99.90;;;;;;6132652;23;20235;-88
2023/01/27 22:52:44;;;;;;;11.53;10.33;;;5.60;99.90;;;;;;6132565;23;20177;-88
2023/01/27 22:55:24;;;;;;;11.70;10.17;;;5.60;99.90;;;;;;6133227;23;20202;-89
2023/01/27 22:57:54;;;;;;;16.63;10.20;;;5.20;99.90;;;;;;6133190;23;20667;-91
2023/01/27 23:00:36;;;;;;;11.00;9.90;;;5.40;99.90;;;;;;6132020;23;20181;-89
2023/01/27 23:03:05;;;;;;;11.70;9.80;;;5.30;99.90;;;;;;6132278;23;20621;-90
2023/01/27 23:08:14;;;;;;;13.47;9.80;;;5.10;99.90;;;;;;6133640;23;20666;-90
2023/01/27 23:10:42;;;;;;;14.17;10.20;;;5.10;99.90;;;;;;6134823;23;20480;-88
2023/01/27 23:13:11;;;;;;;12.33;9.40;;;5.10;99.90;;;;;;6133841;23;20203;-90
2023/01/27 23:15:41;;;;;;;11.07;9.20;;;5.20;99.90;;;;;;6132868;23;20251;-87
2023/01/27 23:18:11;;;;;;;11.57;9.87;;;5.30;99.90;;;;;;6106301;23;20181;-91
2023/01/27 23:20:42;;;;;;;12.97;9.97;;;5.20;99.90;;;;;;6130724;23;20179;-90
2023/01/27 23:23:13;;;;;;;11.57;9.97;;;5.20;99.90;;;;;;6130835;23;20176;-89
2023/01/27 23:25:43;;;;;;;15.33;10.33;;;5.30;99.90;;;;;;6133185;23;20193;-91
2023/01/27 23:28:13;;;;;;;14.30;10.20;;;5.30;99.90;;;;;;6135479;23;20169;-88
2023/01/27 23:30:43;;;;;;;14.97;11.00;;;5.00;99.90;;;;;;6135029;23;20181;-88
2023/01/27 23:33:21;;;;;;;14.93;11.70;;;4.90;99.90;;;;;;6106377;23;20255;-90
2023/01/27 23:35:57;;;;;;;14.80;11.80;;;4.90;99.90;;;;;;6132078;23;20256;-90
2023/01/27 23:38:23;;;;;;;12.43;11.03;;;5.20;99.90;;;;;;6133241;23;20173;-89
2023/01/27 23:40:54;;;;;;;10.57;9.50;;;5.40;99.90;;;;;;6132587;23;20176;-88
2023/01/27 23:43:24;;;;;;;14.27;11.10;;;5.40;99.90;;;;;;6136557;23;20184;-92
2023/01/27 23:45:54;;;;;;;14.43;13.05;;;5.40;99.90;;;;;;6146975;23;20567;-91
2023/01/27 23:48:23;;;;;;;13.20;11.80;;;5.30;99.90;;;;;;6146021;23;20208;-89
2023/01/27 23:50:50;;;;;;;13.97;11.63;;;5.40;99.90;;;;;;6146437;23;20236;-89
2023/01/27 23:53:20;;;;;;;16.63;10.83;;;5.20;99.90;;;;;;6117461;23;20200;-91
2023/01/27 23:55:58;;;;;;;18.93;10.73;;;5.00;99.90;;;;;;6136504;23;20173;-90
2023/01/27 23:58:30;;;;;;;17.60;10.97;;;5.00;99.90;;;;;;6112314;23;20192;-83
